• Join FlightAware (Why Join?)
  • Login
  • US Flag 
08:43PM EDT


 

Airport Tracker/Info


-or-


 

Live Flight TrackerFlight Track Log ✈ QXE2491 ✈ 13-May-2013 ✈ KBLI - KSEA

Flight Track Log - Related Links

Times and Time Zones

All times are in EDT time to prevent confusion due to time zone crossing. See the QXE2491 flight status page for this flight to view local times or setup timezone preferences in your user account.

Time Position Orientation Groundspeed Altitude Reporting Facility
EDT Latitude Longitude Course Direction KTS MPH feet Rate Location/Type
10:33PM 47.9925 -122.7544 174° South 334 384 12,000  Level Seattle Center
10:33PM 47.9667 -122.7053 128° Southeast 334 384 11,400 -1,200 Descending Seattle Center
10:34PM 47.9331 -122.6483 131° Southeast 319 367 10,800 -1,020 Descending Seattle Center
10:34PM 47.9139 -122.6050 123° Southeast 311 358 10,400 -1,320 Descending Seattle Center
10:35PM 47.8842 -122.5497 129° Southeast 296 341 9,500 -1,500 Descending Seattle Center
10:35PM 47.8625 -122.5108 130° Southeast 294 338 8,900 -1,500 Descending Seattle Center
10:36PM 47.8314 -122.4633 134° Southeast 278 320 8,000 -1,680 Descending Seattle Center
10:36PM 47.7972 -122.4183 138° Southeast 275 316 7,200 -1,500 Descending Seattle Center
10:37PM 47.7667 -122.4000 158° South 258 297 6,500 -1,380 Descending Seattle Center
10:37PM 47.7331 -122.3747 153° Southeast 254 292 5,800 -1,320 Descending Seattle Center
10:38PM 47.6259 -122.3407 174° South  Level Estimated
10:38PM 47.7072 -122.3572 155° Southeast 238 274 5,200  Level Seattle Center
10:38PM 47.6747 -122.3367 157° South 232 267 4,600 -1,200 Descending Seattle Center
10:39PM 47.6522 -122.3250 161° South 199 229 4,000 -1,140 Descending Seattle Center
10:39PM 47.6239 -122.3164 168° South 196 226 3,500 -1,140 Descending Seattle Center
10:40PM 47.5994 -122.3181 183° South 189 217 2,900 -1,020 Descending Seattle Center
10:40PM 47.5678 -122.3194 182° South 202 232 2,500 -900 Descending Seattle Center
10:41PM 47.5442 -122.3192 180° South 193 222 2,000 -900 Descending Seattle Center
10:41PM 47.5214 -122.3183 179° South 170 196 1,600 -720 Descending Seattle Center
10:42PM 47.5086 -122.3192 183° South 121 139 1,300 -720 Descending Seattle Center
10:42PM 47.4878 -122.3175 177° South 116 133 900 -600 Descending Seattle Center
10:43PM 47.4731 -122.3192 184° South 102 117 700 -540 Descending Seattle Center
10:43PM 47.4583 -122.3183 178° South 113 130 400 -600 Descending Seattle Center
10:45PM 47.4499 -122.3118 170° South  Level Estimated